Time;durP1;ratioP1;P1;durP2;ratioP2;P2;SDS_P1;SDS_P2;PMS_P1;PMS_P2;Temp;Humidity;BMP_temperature;BMP_pressure;BME280_temperature;BME280_humidity;BME280_pressure;Samples;Min_cycle;Max_cycle;Signal;HPM_P1;HPM_P2
2022/02/18 02:05:28;;;;;;;9.27;3.05;;;10.30;44.20;;;;;;3908785;23;21048;-76
2022/02/18 02:07:55;;;;;;;8.50;2.75;;;10.40;44.50;;;;;;4877976;29;20280;-76
2022/02/18 02:10:22;;;;;;;12.95;3.00;;;10.40;44.50;;;;;;4879510;29;20279;-76
2022/02/18 02:12:51;;;;;;;7.78;2.47;;;10.40;44.50;;;;;;4877796;29;20290;-76
2022/02/18 02:15:19;;;;;;;7.82;2.72;;;10.40;44.60;;;;;;4871225;29;20256;-77
2022/02/18 02:17:47;;;;;;;13.68;3.20;;;10.40;44.80;;;;;;4843663;29;20215;-77
2022/02/18 02:20:14;;;;;;;12.93;3.58;;;10.40;44.80;;;;;;4894428;23;20270;-83
2022/02/18 02:22:42;;;;;;;9.13;3.20;;;10.30;44.70;;;;;;4887542;29;20211;-82
2022/02/18 02:25:09;;;;;;;13.43;3.35;;;10.40;44.80;;;;;;4891500;29;20223;-82
2022/02/18 02:27:36;;;;;;;13.55;3.10;;;10.30;44.70;;;;;;4901768;29;20264;-82
2022/02/18 02:30:04;;;;;;;14.00;3.35;;;10.40;45.00;;;;;;4904594;29;20230;-85
2022/02/18 02:32:34;;;;;;;13.70;2.97;;;10.30;45.10;;;;;;4904044;29;20267;-84
2022/02/18 02:35:01;;;;;;;10.05;2.95;;;10.40;45.40;;;;;;4903317;29;20271;-85
2022/02/18 02:37:28;;;;;;;10.38;2.60;;;10.30;45.40;;;;;;4901014;29;20204;-82
2022/02/18 02:39:56;;;;;;;11.18;3.60;;;10.30;45.60;;;;;;4902188;29;20288;-84
2022/02/18 02:42:23;;;;;;;14.25;2.80;;;10.30;46.40;;;;;;4902757;29;20205;-84
2022/02/18 02:44:50;;;;;;;9.20;2.80;;;10.30;45.80;;;;;;4903118;29;20232;-83
2022/02/18 02:47:17;;;;;;;12.82;3.80;;;10.20;46.00;;;;;;4903539;29;20226;-83
2022/02/18 02:49:44;;;;;;;13.00;3.20;;;10.20;46.20;;;;;;4893700;29;20325;-81
2022/02/18 02:52:11;;;;;;;11.82;3.05;;;10.20;46.30;;;;;;4895646;29;20200;-84
2022/02/18 02:54:39;;;;;;;9.52;3.05;;;10.20;46.70;;;;;;4903312;29;20231;-82
2022/02/18 02:57:07;;;;;;;11.35;2.92;;;10.20;46.80;;;;;;4903150;29;20238;-81
2022/02/18 02:59:34;;;;;;;15.88;3.00;;;10.10;47.10;;;;;;4903455;29;20228;-81
2022/02/18 03:02:01;;;;;;;12.27;3.03;;;10.00;47.10;;;;;;4905186;29;20196;-82
2022/02/18 03:04:28;;;;;;;10.85;2.97;;;10.10;47.20;;;;;;4904915;29;20219;-83
2022/02/18 03:06:55;;;;;;;9.73;2.58;;;10.10;47.20;;;;;;4904724;29;20220;-83
2022/02/18 03:09:22;;;;;;;15.15;3.10;;;10.10;47.10;;;;;;4900687;29;20237;-81
2022/02/18 03:11:48;;;;;;;12.20;3.22;;;10.10;47.20;;;;;;4902096;29;20264;-81
2022/02/18 03:14:17;;;;;;;7.22;2.30;;;10.10;47.10;;;;;;4903223;29;20244;-83
2022/02/18 03:16:44;;;;;;;11.73;3.50;;;10.10;46.90;;;;;;4903722;29;20212;-83
2022/02/18 03:19:10;;;;;;;7.50;2.50;;;10.10;47.00;;;;;;4902960;29;20236;-82
2022/02/18 03:21:39;;;;;;;12.07;2.78;;;10.10;46.80;;;;;;4902919;29;20208;-82
2022/02/18 03:24:06;;;;;;;10.05;2.40;;;10.00;46.70;;;;;;4902776;29;20209;-81
2022/02/18 03:26:33;;;;;;;15.80;3.90;;;10.10;46.80;;;;;;4902795;29;20227;-83
2022/02/18 03:29:00;;;;;;;14.15;2.63;;;10.10;46.80;;;;;;4901091;29;20201;-82
2022/02/18 03:31:28;;;;;;;11.73;3.03;;;10.10;46.80;;;;;;4886571;29;20216;-82
2022/02/18 03:33:55;;;;;;;12.82;2.58;;;10.10;46.60;;;;;;4886101;29;20274;-81
2022/02/18 03:36:22;;;;;;;10.35;2.60;;;10.10;46.50;;;;;;4889264;29;20232;-83
2022/02/18 03:38:49;;;;;;;9.15;2.65;;;10.10;46.50;;;;;;4892659;29;20315;-82
2022/02/18 03:41:16;;;;;;;9.65;2.97;;;10.10;46.60;;;;;;4890240;29;20232;-82
2022/02/18 03:43:42;;;;;;;15.50;2.92;;;10.10;46.80;;;;;;4895136;29;20231;-82
2022/02/18 03:46:09;;;;;;;4.57;2.35;;;10.10;46.80;;;;;;4886235;29;20216;-81
2022/02/18 03:48:38;;;;;;;6.15;1.92;;;10.00;46.80;;;;;;4900645;29;20489;-83
2022/02/18 03:51:05;;;;;;;9.27;2.58;;;10.10;46.70;;;;;;4900652;29;20261;-81
2022/02/18 03:53:32;;;;;;;11.65;2.80;;;10.00;46.50;;;;;;4884229;29;20213;-82
2022/02/18 03:55:59;;;;;;;8.13;2.50;;;10.00;46.70;;;;;;4883457;29;20755;-82
2022/02/18 03:58:26;;;;;;;10.00;2.40;;;10.00;46.70;;;;;;4884438;29;20246;-81
2022/02/18 04:00:53;;;;;;;8.45;2.88;;;10.00;46.50;;;;;;4883534;29;20303;-82
2022/02/18 04:03:20;;;;;;;8.32;2.35;;;10.10;46.30;;;;;;4884675;29;20225;-81
2022/02/18 04:05:49;;;;;;;9.18;2.88;;;10.10;46.30;;;;;;4899355;29;20196;-82
2022/02/18 04:08:16;;;;;;;10.55;2.40;;;10.10;46.20;;;;;;4902760;29;20207;-82
2022/02/18 04:10:43;;;;;;;10.85;3.65;;;10.10;46.10;;;;;;4902799;29;20227;-84
2022/02/18 04:13:10;;;;;;;5.68;2.60;;;10.10;46.10;;;;;;4902939;29;20274;-81
2022/02/18 04:15:37;;;;;;;8.80;2.90;;;10.20;46.00;;;;;;4895040;29;20220;-81
2022/02/18 04:18:04;;;;;;;7.95;2.38;;;10.10;46.00;;;;;;4895431;29;20299;-83
2022/02/18 04:20:31;;;;;;;9.15;2.70;;;10.20;45.80;;;;;;4898653;29;20242;-83
2022/02/18 04:22:59;;;;;;;10.50;2.60;;;10.20;45.90;;;;;;4900169;29;20213;-80
2022/02/18 04:25:26;;;;;;;7.82;2.35;;;10.10;46.00;;;;;;4901619;29;20250;-82
2022/02/18 04:27:54;;;;;;;10.57;2.50;;;10.10;46.30;;;;;;4898710;29;20226;-81
2022/02/18 04:30:22;;;;;;;9.55;2.80;;;10.10;46.50;;;;;;4868727;29;20267;-80
2022/02/18 04:32:49;;;;;;;9.75;2.28;;;10.00;46.40;;;;;;4871068;29;20221;-83
2022/02/18 04:35:16;;;;;;;11.68;3.70;;;10.10;46.60;;;;;;4892543;29;20259;-80
2022/02/18 04:37:44;;;;;;;10.70;2.80;;;10.10;46.40;;;;;;4885548;29;20277;-82
2022/02/18 04:40:15;;;;;;;13.13;3.03;;;10.10;46.30;;;;;;4885307;29;20243;-80
2022/02/18 04:42:42;;;;;;;11.32;2.30;;;10.10;46.40;;;;;;4884314;29;20244;-80
2022/02/18 04:45:11;;;;;;;15.05;3.05;;;10.10;46.40;;;;;;4885768;29;20300;-81
2022/02/18 04:47:38;;;;;;;8.15;2.03;;;10.10;46.40;;;;;;4884526;29;20293;-80
2022/02/18 04:50:05;;;;;;;12.40;3.70;;;10.20;46.30;;;;;;4883793;29;20236;-81
2022/02/18 04:52:33;;;;;;;13.45;2.28;;;10.20;46.00;;;;;;4882277;29;20304;-82
2022/02/18 04:55:00;;;;;;;11.98;2.72;;;10.30;46.00;;;;;;4864508;29;20316;-81
2022/02/18 04:57:29;;;;;;;9.07;2.70;;;10.30;46.10;;;;;;4864725;29;20218;-82
2022/02/18 04:59:56;;;;;;;10.40;2.90;;;10.30;45.90;;;;;;4864098;29;20239;-82
2022/02/18 05:02:23;;;;;;;8.63;2.65;;;10.30;45.90;;;;;;4863784;29;20269;-81
2022/02/18 05:04:50;;;;;;;9.15;2.45;;;10.30;46.00;;;;;;4872671;29;20199;-82
2022/02/18 05:07:17;;;;;;;13.25;2.80;;;10.30;45.80;;;;;;4885105;29;20617;-82
2022/02/18 05:09:45;;;;;;;7.72;2.35;;;10.30;46.00;;;;;;4884149;29;20235;-82
2022/02/18 05:12:13;;;;;;;10.43;3.08;;;10.30;46.60;;;;;;4882935;29;20211;-82
2022/02/18 05:14:41;;;;;;;13.88;2.97;;;10.30;45.80;;;;;;4886478;29;20209;-81
2022/02/18 05:17:08;;;;;;;12.35;2.83;;;10.30;46.00;;;;;;4869777;29;20232;-81
2022/02/18 05:19:35;;;;;;;7.68;2.83;;;10.20;46.30;;;;;;4868588;29;20324;-82
2022/02/18 05:22:02;;;;;;;9.50;2.70;;;10.20;46.30;;;;;;4885840;29;20207;-81
2022/02/18 05:24:29;;;;;;;9.75;2.50;;;10.20;46.40;;;;;;4889729;29;20232;-80
2022/02/18 05:26:55;;;;;;;7.65;2.35;;;10.20;46.30;;;;;;4885584;29;20208;-81
2022/02/18 05:29:23;;;;;;;7.05;2.47;;;10.30;45.90;;;;;;4886238;29;20247;-83
2022/02/18 05:31:51;;;;;;;7.53;2.40;;;10.30;45.80;;;;;;4889761;29;20304;-81
2022/02/18 05:34:18;;;;;;;10.20;3.00;;;10.30;45.50;;;;;;4886251;29;20205;-81
2022/02/18 05:36:45;;;;;;;7.10;3.00;;;10.30;45.50;;;;;;4885570;29;20235;-81
2022/02/18 05:39:12;;;;;;;6.35;2.30;;;10.40;45.20;;;;;;4884965;29;20719;-81
2022/02/18 05:41:39;;;;;;;7.22;2.55;;;10.40;44.90;;;;;;4889771;29;20567;-82
2022/02/18 05:44:07;;;;;;;10.27;2.70;;;10.50;44.80;;;;;;4898178;29;20205;-82
2022/02/18 05:46:34;;;;;;;7.40;2.33;;;10.50;44.80;;;;;;4897389;29;20209;-84
2022/02/18 05:49:02;;;;;;;7.47;2.20;;;10.50;44.80;;;;;;4899617;29;20205;-82
2022/02/18 05:51:29;;;;;;;10.45;2.20;;;10.50;44.80;;;;;;4898166;29;20243;-81
2022/02/18 05:53:56;;;;;;;11.43;2.92;;;10.50;44.80;;;;;;4896427;29;20207;-82
2022/02/18 05:56:23;;;;;;;9.88;2.60;;;10.50;44.80;;;;;;4891080;29;20236;-80
2022/02/18 05:58:50;;;;;;;5.35;2.33;;;10.50;45.60;;;;;;4889224;29;20209;-81
2022/02/18 06:01:20;;;;;;;10.80;2.35;;;10.50;44.80;;;;;;4890922;29;20269;-82
2022/02/18 06:03:47;;;;;;;10.55;3.03;;;10.50;44.80;;;;;;4891699;29;20611;-82
2022/02/18 06:06:15;;;;;;;9.32;2.60;;;10.40;45.00;;;;;;4890367;29;20211;-82
2022/02/18 06:08:42;;;;;;;6.85;2.50;;;10.40;45.10;;;;;;4891613;29;20231;-82
2022/02/18 06:11:10;;;;;;;10.27;2.88;;;10.40;45.30;;;;;;4891192;29;20275;-81
2022/02/18 06:13:37;;;;;;;9.02;2.95;;;10.50;45.60;;;;;;4890510;29;20305;-80
2022/02/18 06:16:04;;;;;;;7.35;2.75;;;10.50;45.70;;;;;;4891180;29;20296;-81
2022/02/18 06:18:31;;;;;;;7.18;2.58;;;10.60;46.10;;;;;;4903711;29;20331;-82
2022/02/18 06:20:58;;;;;;;8.68;3.28;;;10.60;46.60;;;;;;4899215;29;20263;-81
2022/02/18 06:23:26;;;;;;;14.43;3.60;;;10.70;46.80;;;;;;4890625;29;20224;-82
2022/02/18 06:25:53;;;;;;;5.47;1.65;;;10.70;47.00;;;;;;4891582;29;20212;-81
2022/02/18 06:28:20;;;;;;;11.48;2.90;;;10.70;47.40;;;;;;4893078;29;20213;-81
2022/02/18 06:30:47;;;;;;;14.98;3.35;;;10.80;48.30;;;;;;4891930;29;20288;-81
2022/02/18 06:33:14;;;;;;;11.63;3.45;;;10.80;49.20;;;;;;4892595;29;20254;-81
2022/02/18 06:35:42;;;;;;;9.48;2.35;;;10.80;50.00;;;;;;4895716;29;20229;-81
2022/02/18 06:38:10;;;;;;;10.73;2.03;;;10.80;50.00;;;;;;4901530;29;20227;-81
2022/02/18 06:40:38;;;;;;;11.15;2.75;;;10.90;50.00;;;;;;4902507;29;20261;-81
2022/02/18 06:43:06;;;;;;;10.88;3.65;;;10.90;50.00;;;;;;4875424;29;20253;-81
2022/02/18 06:45:32;;;;;;;9.32;2.60;;;10.90;50.50;;;;;;4872095;29;20234;-81
2022/02/18 06:47:59;;;;;;;11.93;2.80;;;11.00;51.00;;;;;;4890215;29;20210;-82
2022/02/18 06:50:26;;;;;;;9.25;2.40;;;11.00;51.30;;;;;;4894992;29;20266;-83
2022/02/18 06:52:53;;;;;;;10.18;1.98;;;11.10;51.70;;;;;;4895182;29;20238;-82
2022/02/18 06:55:24;;;;;;;10.35;2.95;;;11.00;52.30;;;;;;4896146;29;20227;-81
2022/02/18 06:57:55;;;;;;;10.05;2.40;;;11.00;52.60;;;;;;4890640;29;20212;-81
2022/02/18 07:00:24;;;;;;;10.48;3.25;;;11.10;53.10;;;;;;4896503;29;20314;-82
2022/02/18 07:02:51;;;;;;;11.38;2.60;;;11.10;53.50;;;;;;4893156;29;20221;-82
2022/02/18 07:05:18;;;;;;;10.63;2.40;;;11.10;53.90;;;;;;4887572;29;20208;-81
2022/02/18 07:07:45;;;;;;;8.95;2.80;;;11.10;54.30;;;;;;4888222;29;20234;-79
2022/02/18 07:10:14;;;;;;;8.75;2.10;;;11.20;54.80;;;;;;4869549;29;20308;-82
2022/02/18 07:12:42;;;;;;;11.30;2.75;;;11.10;55.60;;;;;;4872838;29;20205;-83
2022/02/18 07:15:11;;;;;;;6.68;1.83;;;11.10;56.60;;;;;;4887888;29;20228;-82
2022/02/18 07:17:39;;;;;;;12.05;3.38;;;11.10;57.20;;;;;;4889127;29;20212;-83
2022/02/18 07:20:09;;;;;;;8.55;2.28;;;11.10;57.70;;;;;;4890316;29;20244;-82
2022/02/18 07:22:37;;;;;;;8.48;2.35;;;11.10;58.20;;;;;;4896450;29;20218;-83
2022/02/18 07:25:06;;;;;;;6.85;2.90;;;11.10;58.50;;;;;;4893543;29;20209;-82
2022/02/18 07:27:34;;;;;;;5.65;2.25;;;11.20;59.10;;;;;;4894171;29;20200;-81
2022/02/18 07:30:01;;;;;;;10.27;2.25;;;11.20;59.80;;;;;;4891820;29;20323;-81
2022/02/18 07:32:30;;;;;;;15.20;3.50;;;11.10;59.70;;;;;;4891154;29;20213;-81
2022/02/18 07:34:57;;;;;;;7.88;2.55;;;11.10;61.30;;;;;;4891540;29;20208;-83
2022/02/18 07:37:24;;;;;;;6.22;2.15;;;11.10;62.70;;;;;;4892062;29;20232;-82
2022/02/18 07:39:50;;;;;;;9.02;2.50;;;11.10;64.10;;;;;;4894291;29;20323;-81
2022/02/18 07:42:18;;;;;;;11.13;3.67;;;11.00;65.60;;;;;;4895518;29;20272;-82
2022/02/18 07:44:44;;;;;;;7.60;2.05;;;11.00;67.30;;;;;;4900658;29;20217;-82
2022/02/18 07:47:12;;;;;;;7.47;2.42;;;11.00;68.50;;;;;;4901847;29;20205;-81
2022/02/18 07:49:42;;;;;;;8.25;2.25;;;11.00;69.50;;;;;;4900480;29;20244;-83
2022/02/18 07:52:09;;;;;;;6.03;2.13;;;11.10;69.50;;;;;;4902395;29;20204;-82
2022/02/18 07:54:36;;;;;;;8.75;1.90;;;11.20;69.20;;;;;;4902345;29;20701;-81
2022/02/18 07:57:04;;;;;;;8.57;2.10;;;11.30;68.80;;;;;;4901378;29;20245;-81
2022/02/18 07:59:31;;;;;;;8.50;1.85;;;11.40;68.90;;;;;;4890609;29;20720;-81
2022/02/18 08:01:58;;;;;;;9.85;2.38;;;11.50;68.90;;;;;;4889541;29;20204;-81
2022/02/18 08:04:25;;;;;;;4.80;1.90;;;11.60;68.00;;;;;;4890310;29;20215;-81
2022/02/18 08:06:53;;;;;;;3.80;1.67;;;11.70;67.60;;;;;;4888819;29;20213;-82
2022/02/18 08:09:20;;;;;;;3.05;1.30;;;11.70;66.80;;;;;;4889480;29;20253;-80
2022/02/18 08:11:47;;;;;;;5.90;1.40;;;11.80;66.30;;;;;;4888892;29;20208;-80
2022/02/18 08:14:14;;;;;;;3.05;1.42;;;11.90;65.80;;;;;;4889551;29;20295;-80
2022/02/18 08:16:41;;;;;;;3.30;1.30;;;11.80;65.50;;;;;;4894566;29;20238;-78
2022/02/18 08:19:09;;;;;;;2.85;1.30;;;11.90;64.90;;;;;;4897553;29;20213;-79
2022/02/18 08:21:36;;;;;;;2.13;0.90;;;12.00;65.20;;;;;;4894329;23;20325;-78
2022/02/18 08:24:05;;;;;;;3.05;0.77;;;12.10;64.40;;;;;;4881316;29;20269;-75
2022/02/18 08:26:33;;;;;;;3.45;1.05;;;12.10;63.90;;;;;;4880360;29;20249;-73
2022/02/18 08:29:00;;;;;;;6.30;1.20;;;12.10;63.60;;;;;;4880733;29;20222;-75
2022/02/18 08:31:28;;;;;;;3.17;1.00;;;12.20;62.90;;;;;;4880550;29;20236;-76
2022/02/18 08:33:55;;;;;;;3.20;1.00;;;12.30;63.30;;;;;;4880794;29;20582;-75
2022/02/18 08:36:22;;;;;;;1.80;1.20;;;12.40;62.10;;;;;;4881588;29;20273;-77
2022/02/18 08:38:49;;;;;;;2.67;1.10;;;12.40;61.20;;;;;;4881275;29;20205;-75
2022/02/18 08:41:17;;;;;;;4.18;1.35;;;12.50;60.90;;;;;;4880558;29;20757;-76
2022/02/18 08:43:44;;;;;;;2.42;1.10;;;12.50;60.90;;;;;;4880445;29;20695;-76
2022/02/18 08:46:11;;;;;;;4.10;0.98;;;12.60;61.00;;;;;;4882063;29;20216;-76
2022/02/18 08:48:38;;;;;;;2.15;1.10;;;12.60;61.00;;;;;;4881214;29;20216;-77
2022/02/18 08:51:05;;;;;;;1.95;0.75;;;12.60;61.00;;;;;;4880577;29;20248;-76
2022/02/18 08:53:32;;;;;;;3.28;1.17;;;12.70;61.10;;;;;;4881798;29;20268;-77
2022/02/18 08:55:59;;;;;;;1.25;0.80;;;12.80;61.20;;;;;;4866231;29;20215;-75
2022/02/18 08:58:28;;;;;;;2.13;1.00;;;12.80;60.60;;;;;;4868546;29;20212;-76
2022/02/18 09:00:55;;;;;;;2.83;0.82;;;12.80;60.40;;;;;;4881231;29;20315;-77
2022/02/18 09:03:22;;;;;;;3.17;0.60;;;12.90;59.70;;;;;;4882194;29;20299;-75
2022/02/18 09:05:49;;;;;;;3.97;1.20;;;13.00;59.20;;;;;;4881022;29;20235;-77
2022/02/18 09:08:16;;;;;;;1.15;0.90;;;13.00;59.00;;;;;;4881969;29;20461;-76
2022/02/18 09:10:44;;;;;;;2.80;0.70;;;13.10;59.00;;;;;;4880606;29;20784;-76
2022/02/18 09:13:12;;;;;;;2.83;0.77;;;13.20;59.50;;;;;;4881177;29;20537;-74
2022/02/18 09:15:40;;;;;;;1.47;0.70;;;13.20;58.60;;;;;;4889696;29;20442;-76
2022/02/18 09:18:07;;;;;;;2.20;0.80;;;13.30;58.60;;;;;;4900685;29;20491;-75
2022/02/18 09:20:35;;;;;;;0.85;0.60;;;13.40;57.70;;;;;;4895822;29;20493;-80
2022/02/18 09:23:02;;;;;;;2.13;0.83;;;13.50;58.40;;;;;;4884816;29;20227;-76
2022/02/18 09:25:29;;;;;;;1.00;0.70;;;13.50;57.30;;;;;;4880962;29;20436;-75
2022/02/18 09:27:56;;;;;;;2.20;0.60;;;13.50;57.20;;;;;;4887255;29;20461;-78
2022/02/18 09:30:23;;;;;;;2.53;0.67;;;13.60;57.10;;;;;;4882310;29;20544;-77
2022/02/18 09:32:51;;;;;;;1.27;0.70;;;13.70;56.80;;;;;;4880836;29;20531;-77
2022/02/18 09:35:18;;;;;;;3.57;0.80;;;13.80;56.40;;;;;;4883496;29;20470;-76
2022/02/18 09:37:45;;;;;;;1.53;0.73;;;13.80;56.10;;;;;;4880343;29;21132;-75
2022/02/18 09:40:14;;;;;;;1.00;0.80;;;13.80;55.80;;;;;;4881962;29;20499;-75
2022/02/18 09:42:42;;;;;;;6.50;1.00;;;13.90;55.50;;;;;;4882995;29;20438;-76
2022/02/18 09:45:12;;;;;;;1.43;0.80;;;13.90;55.40;;;;;;4883588;29;20543;-78
2022/02/18 09:47:41;;;;;;;1.27;0.90;;;13.90;55.40;;;;;;4887663;29;20496;-77
2022/02/18 09:50:10;;;;;;;1.23;0.93;;;13.90;55.30;;;;;;4896243;29;20570;-78
2022/02/18 09:52:37;;;;;;;2.33;0.83;;;14.00;54.70;;;;;;4889481;29;20519;-78
2022/02/18 09:55:05;;;;;;;1.20;0.70;;;14.10;54.50;;;;;;4894379;29;20440;-78
2022/02/18 09:57:34;;;;;;;2.00;0.77;;;14.20;54.20;;;;;;4898437;29;20861;-77
2022/02/18 10:00:03;;;;;;;0.70;0.70;;;14.30;53.20;;;;;;4890667;29;20512;-77
2022/02/18 10:02:30;;;;;;;1.17;0.70;;;14.40;53.30;;;;;;4889596;29;20944;-80
2022/02/18 10:04:57;;;;;;;1.83;0.90;;;14.30;53.30;;;;;;4888347;29;20451;-78
2022/02/18 10:07:26;;;;;;;2.50;1.30;;;14.30;53.30;;;;;;4887353;29;20431;-77
2022/02/18 10:09:53;;;;;;;1.80;0.90;;;14.30;53.30;;;;;;4888097;29;20479;-79
2022/02/18 10:12:34;;;;;;;1.20;0.90;;;14.40;53.40;;;;;;4886638;29;20443;-77
2022/02/18 10:15:09;;;;;;;1.90;0.97;;;14.50;53.40;;;;;;4888537;29;20429;-78
2022/02/18 10:17:40;;;;;;;2.10;1.10;;;14.70;52.50;;;;;;4886631;29;20534;-78
2022/02/18 10:20:16;;;;;;;1.90;1.07;;;14.70;52.20;;;;;;4887571;29;20872;-80
2022/02/18 10:22:57;;;;;;;2.17;0.80;;;14.80;51.70;;;;;;4886346;29;20443;-81
2022/02/18 10:25:25;;;;;;;4.93;1.00;;;15.00;51.40;;;;;;4879178;29;20783;-78
2022/02/18 10:27:53;;;;;;;1.63;0.90;;;15.20;50.40;;;;;;4865953;29;20461;-80
2022/02/18 10:30:23;;;;;;;1.63;0.93;;;15.30;49.70;;;;;;4867742;29;21085;-80
2022/02/18 10:32:51;;;;;;;1.10;0.67;;;15.50;49.50;;;;;;4886035;29;20543;-77
2022/02/18 10:35:20;;;;;;;1.50;0.90;;;15.60;49.00;;;;;;4888067;29;20449;-77
2022/02/18 10:37:53;;;;;;;1.97;0.87;;;15.70;48.80;;;;;;4884672;29;20933;-79
2022/02/18 10:40:22;;;;;;;3.37;1.00;;;15.90;47.60;;;;;;4885881;29;20524;-79
2022/02/18 10:42:51;;;;;;;0.90;0.83;;;16.10;47.30;;;;;;4865342;29;20468;-79
2022/02/18 10:45:20;;;;;;;1.17;0.63;;;16.30;46.50;;;;;;4868174;29;20446;-78
2022/02/18 10:47:49;;;;;;;1.23;0.77;;;16.40;45.50;;;;;;4887240;29;20477;-77
2022/02/18 10:50:18;;;;;;;2.20;0.80;;;16.40;45.50;;;;;;4886345;29;20455;-77
2022/02/18 10:53:10;;;;;;;1.50;0.67;;;16.30;45.40;;;;;;4890639;29;20540;-77
2022/02/18 10:55:53;;;;;;;1.20;0.80;;;16.20;45.30;;;;;;4895629;29;20456;-78
2022/02/18 10:58:24;;;;;;;1.17;0.60;;;16.20;45.30;;;;;;4897502;29;20484;-79
2022/02/18 11:01:05;;;;;;;1.93;0.80;;;16.40;45.50;;;;;;4890240;29;20468;-79
2022/02/18 11:03:32;;;;;;;2.97;0.90;;;16.40;45.50;;;;;;4883976;29;20907;-78
2022/02/18 11:06:11;;;;;;;3.10;0.53;;;16.40;45.50;;;;;;4884562;29;20500;-78
2022/02/18 11:08:39;;;;;;;1.63;0.83;;;16.50;45.60;;;;;;4887033;29;20465;-79
2022/02/18 11:11:11;;;;;;;1.83;1.07;;;16.60;45.50;;;;;;4887184;29;20481;-79
2022/02/18 11:13:40;;;;;;;1.23;0.70;;;16.80;44.80;;;;;;4890626;29;20444;-80
2022/02/18 11:16:10;;;;;;;2.87;0.90;;;16.70;44.60;;;;;;4888114;29;20539;-79
2022/02/18 11:18:39;;;;;;;2.40;0.90;;;16.60;45.70;;;;;;4888734;29;20459;-78
2022/02/18 11:21:07;;;;;;;1.80;0.77;;;16.50;45.50;;;;;;4888048;29;20455;-79
2022/02/18 11:23:35;;;;;;;1.43;0.70;;;16.40;45.50;;;;;;4887750;29;20504;-79
2022/02/18 11:26:03;;;;;;;0.93;0.67;;;16.30;45.40;;;;;;4888397;29;20468;-76
2022/02/18 11:28:32;;;;;;;4.67;0.80;;;16.30;45.40;;;;;;4890231;29;20461;-77
2022/02/18 11:31:06;;;;;;;2.90;0.70;;;16.20;45.30;;;;;;4885486;29;20520;-81
2022/02/18 11:33:47;;;;;;;2.67;1.00;;;16.30;45.40;;;;;;4885765;29;20802;-78
2022/02/18 11:36:50;;;;;;;1.63;0.90;;;16.30;45.40;;;;;;4883791;29;20416;-77
2022/02/18 11:39:45;;;;;;;1.17;0.70;;;16.40;45.50;;;;;;4869242;29;20453;-78
2022/02/18 11:42:21;;;;;;;1.80;1.00;;;16.50;45.00;;;;;;4858824;29;20462;-78
2022/02/18 11:44:51;;;;;;;3.00;0.97;;;16.70;44.70;;;;;;4873637;29;20818;-79
2022/02/18 11:47:19;;;;;;;2.27;0.57;;;16.90;43.80;;;;;;4881596;29;20456;-79
2022/02/18 11:49:48;;;;;;;1.83;1.10;;;17.10;42.90;;;;;;4882028;29;20572;-78
2022/02/18 11:52:18;;;;;;;1.13;1.03;;;17.20;43.00;;;;;;4881771;29;20571;-78
2022/02/18 11:54:45;;;;;;;3.80;0.93;;;17.10;43.00;;;;;;4883077;29;20489;-78
2022/02/18 11:57:17;;;;;;;2.40;0.57;;;17.00;43.10;;;;;;4884493;29;20482;-77
2022/02/18 11:59:46;;;;;;;2.67;0.70;;;17.00;42.90;;;;;;4883330;29;20548;-79
2022/02/18 12:02:14;;;;;;;1.00;0.87;;;17.00;43.00;;;;;;4889614;29;20488;-81
2022/02/18 12:04:41;;;;;;;2.30;0.70;;;17.00;43.10;;;;;;4902016;29;20466;-78
2022/02/18 12:07:32;;;;;;;7.30;1.30;;;16.90;43.40;;;;;;4900803;29;20441;-80
2022/02/18 12:10:11;;;;;;;5.13;1.10;;;16.80;43.60;;;;;;4886363;29;20913;-79
2022/02/18 12:12:41;;;;;;;1.50;1.07;;;16.70;43.60;;;;;;4884183;29;20428;-79
2022/02/18 12:15:24;;;;;;;3.87;0.90;;;16.90;43.50;;;;;;4884391;29;20475;-79
2022/02/18 12:17:58;;;;;;;2.73;0.80;;;16.90;43.10;;;;;;4883751;29;20762;-78
2022/02/18 12:20:27;;;;;;;1.00;0.70;;;16.90;43.10;;;;;;4882535;29;21081;-79
2022/02/18 12:22:54;;;;;;;3.40;1.50;;;16.80;43.30;;;;;;4882164;29;20471;-77
2022/02/18 12:25:24;;;;;;;2.30;0.90;;;16.90;43.60;;;;;;4869875;29;20461;-79
2022/02/18 12:27:53;;;;;;;1.13;0.80;;;17.10;43.00;;;;;;4866809;29;20455;-78
2022/02/18 12:30:36;;;;;;;2.40;0.90;;;17.10;42.90;;;;;;4890297;29;20459;-79
2022/02/18 12:33:05;;;;;;;6.67;1.33;;;17.10;42.70;;;;;;4885092;29;20448;-78
2022/02/18 12:35:34;;;;;;;2.10;1.13;;;17.00;43.10;;;;;;4877435;29;20432;-79
2022/02/18 12:38:04;;;;;;;2.70;0.90;;;17.20;42.70;;;;;;4885838;29;20580;-78
2022/02/18 12:40:34;;;;;;;4.50;1.17;;;17.20;42.90;;;;;;4890676;29;20557;-76
2022/02/18 12:43:03;;;;;;;1.43;0.93;;;17.10;42.90;;;;;;4885687;29;20466;-79
2022/02/18 12:45:43;;;;;;;1.77;1.50;;;17.00;43.30;;;;;;4885376;29;20461;-82
2022/02/18 12:48:12;;;;;;;4.00;1.50;;;16.90;43.70;;;;;;4886182;29;20449;-81
2022/02/18 12:50:41;;;;;;;4.73;1.13;;;16.90;44.00;;;;;;4880487;29;20559;-79
2022/02/18 12:53:09;;;;;;;9.33;1.43;;;16.90;44.10;;;;;;4871503;29;20466;-80
2022/02/18 12:55:38;;;;;;;1.77;0.90;;;16.90;44.20;;;;;;4867344;29;20464;-79
2022/02/18 12:58:11;;;;;;;1.30;0.63;;;17.10;43.80;;;;;;4894369;29;20497;-78
2022/02/18 13:00:39;;;;;;;2.87;1.27;;;17.10;43.40;;;;;;4898048;29;20466;-79
2022/02/18 13:03:07;;;;;;;4.97;1.20;;;17.10;43.20;;;;;;4888288;29;20486;-77
2022/02/18 13:05:37;;;;;;;1.97;1.10;;;17.10;43.50;;;;;;4887026;29;20462;-78
2022/02/18 13:08:06;;;;;;;1.00;0.90;;;17.00;43.60;;;;;;4905633;29;20404;-79
2022/02/18 13:10:35;;;;;;;2.60;0.90;;;17.00;43.60;;;;;;4903752;29;20459;-79
2022/02/18 13:13:12;;;;;;;2.27;0.83;;;17.00;43.50;;;;;;4883832;29;20447;-80
2022/02/18 13:15:40;;;;;;;2.23;0.70;;;17.00;43.90;;;;;;4882242;29;20510;-79
2022/02/18 13:18:09;;;;;;;3.30;1.10;;;17.00;43.40;;;;;;4885034;29;20464;-78
2022/02/18 13:20:38;;;;;;;2.40;0.87;;;17.00;43.90;;;;;;4896315;29;20547;-81
2022/02/18 13:23:08;;;;;;;4.33;0.90;;;17.00;43.70;;;;;;4889111;29;20453;-79
2022/02/18 13:25:36;;;;;;;0.87;0.70;;;17.00;43.90;;;;;;4884381;29;20465;-78
2022/02/18 13:28:06;;;;;;;1.47;1.00;;;16.80;44.20;;;;;;4884456;29;20881;-80
2022/02/18 13:30:35;;;;;;;2.00;0.87;;;16.60;44.60;;;;;;4881945;29;20504;-81
2022/02/18 13:33:05;;;;;;;2.03;1.10;;;16.50;45.60;;;;;;4894399;29;20461;-79
2022/02/18 13:35:34;;;;;;;1.60;1.07;;;16.40;45.50;;;;;;4895600;29;20935;-81
2022/02/18 13:38:02;;;;;;;2.47;0.87;;;16.40;45.50;;;;;;4893154;29;20493;-79
2022/02/18 13:40:29;;;;;;;2.10;1.00;;;16.30;45.00;;;;;;4894739;29;20463;-78
2022/02/18 13:42:59;;;;;;;0.50;0.50;;;16.20;44.30;;;;;;4894097;29;20427;-78
2022/02/18 13:45:27;;;;;;;1.43;0.70;;;16.30;44.40;;;;;;4890659;29;20556;-79
2022/02/18 13:47:55;;;;;;;0.60;0.50;;;16.30;43.90;;;;;;4889425;29;20513;-76
2022/02/18 13:50:22;;;;;;;2.73;0.77;;;16.40;43.40;;;;;;4885452;29;20548;-75
2022/02/18 13:52:50;;;;;;;0.70;0.60;;;16.30;43.90;;;;;;4887131;29;20514;-76
2022/02/18 13:55:26;;;;;;;2.33;1.40;;;16.30;44.10;;;;;;4866083;29;20436;-78
2022/02/18 13:57:53;;;;;;;1.03;0.87;;;16.20;43.80;;;;;;4867457;29;20549;-77
2022/02/18 14:00:40;;;;;;;1.80;0.80;;;16.20;45.00;;;;;;4868956;29;20486;-77
2022/02/18 14:03:08;;;;;;;6.53;3.77;;;16.20;44.30;;;;;;4867048;29;20501;-76
2022/02/18 14:05:36;;;;;;;0.70;0.70;;;16.20;44.60;;;;;;4884561;29;20448;-78
2022/02/18 14:08:09;;;;;;;1.83;0.73;;;16.20;44.60;;;;;;4899067;29;20532;-79
2022/02/18 14:10:42;;;;;;;2.03;1.10;;;16.20;44.50;;;;;;4902176;29;20487;-79
2022/02/18 14:13:21;;;;;;;1.03;0.80;;;16.10;44.30;;;;;;4902125;29;20428;-77
2022/02/18 14:16:28;;;;;;;1.57;0.70;;;16.10;44.90;;;;;;4901257;29;20457;-77
2022/02/18 14:18:57;;;;;;;2.33;0.93;;;16.10;44.50;;;;;;4892648;29;21009;-76
2022/02/18 14:21:27;;;;;;;0.80;0.60;;;16.10;44.20;;;;;;4884277;29;20648;-76
2022/02/18 14:23:56;;;;;;;1.90;0.60;;;16.10;44.50;;;;;;4889210;29;20457;-77
2022/02/18 14:26:25;;;;;;;3.00;1.00;;;16.00;44.40;;;;;;4903702;29;20460;-75
2022/02/18 14:28:53;;;;;;;1.43;0.63;;;15.90;45.00;;;;;;4890744;29;20842;-75
2022/02/18 14:31:22;;;;;;;1.07;0.90;;;15.90;45.00;;;;;;4886282;29;20485;-78
2022/02/18 14:33:54;;;;;;;1.60;0.80;;;15.90;45.10;;;;;;4885226;29;20511;-75
2022/02/18 14:36:33;;;;;;;0.97;0.70;;;15.80;44.90;;;;;;4885511;29;20900;-77
2022/02/18 14:39:01;;;;;;;2.73;1.00;;;15.70;44.80;;;;;;4884236;29;20543;-78
2022/02/18 14:41:29;;;;;;;0.87;0.87;;;15.70;44.80;;;;;;4884846;29;20504;-77
2022/02/18 14:43:58;;;;;;;1.60;0.70;;;15.70;44.80;;;;;;4883480;29;20455;-76
2022/02/18 14:46:26;;;;;;;1.53;0.90;;;15.60;45.40;;;;;;4886043;29;20469;-78
2022/02/18 14:48:55;;;;;;;4.40;1.03;;;15.60;44.70;;;;;;4884622;29;20461;-77
2022/02/18 14:51:22;;;;;;;1.57;0.83;;;15.50;45.30;;;;;;4883855;29;20491;-78
2022/02/18 14:53:51;;;;;;;3.10;0.77;;;15.40;45.80;;;;;;4882727;29;20977;-77
2022/02/18 14:56:18;;;;;;;3.17;0.77;;;15.30;46.10;;;;;;4881599;29;20980;-79
2022/02/18 14:58:46;;;;;;;1.33;0.90;;;15.30;46.30;;;;;;4883604;29;20459;-76